createdAt,value
2022-08-05T00:00:46.725Z,15.30
2022-08-05T00:03:17.382Z,15.17
2022-08-05T00:06:05.770Z,16.10
2022-08-05T00:08:35.113Z,14.90
2022-08-05T00:11:05.553Z,16.57
2022-08-05T00:13:53.065Z,14.77
2022-08-05T00:16:20.116Z,14.67
2022-08-05T00:19:04.509Z,13.80
2022-08-05T00:21:31.047Z,15.53
2022-08-05T00:24:09.926Z,14.00
2022-08-05T00:26:37.407Z,14.77
2022-08-05T00:29:03.959Z,13.53
2022-08-05T00:31:41.447Z,14.07
2022-08-05T00:34:54.485Z,13.17
2022-08-05T00:37:13.280Z,13.50
2022-08-05T00:39:57.509Z,13.70
2022-08-05T00:42:33.824Z,13.27
2022-08-05T00:45:01.151Z,13.80
2022-08-05T00:47:52.966Z,13.37
2022-08-05T00:50:14.691Z,12.83
2022-08-05T00:52:41.755Z,12.03
2022-08-05T00:55:12.442Z,11.50
2022-08-05T00:57:58.674Z,12.20
2022-08-05T01:00:27.698Z,11.93
2022-08-05T01:02:55.082Z,11.47
2022-08-05T01:05:21.995Z,10.70
2022-08-05T01:08:40.997Z,10.70
2022-08-05T01:10:56.090Z,9.73
2022-08-05T01:13:58.494Z,11.40
2022-08-05T01:16:53.446Z,10.70
2022-08-05T01:19:36.684Z,9.70
2022-08-05T01:22:45.325Z,8.13
2022-08-05T01:25:39.972Z,7.80
2022-08-05T01:28:23.413Z,9.03
2022-08-05T01:31:13.119Z,9.20
2022-08-05T01:33:49.234Z,8.20
2022-08-05T01:36:20.972Z,9.23
2022-08-05T01:38:49.886Z,7.53
2022-08-05T01:41:21.603Z,7.17
2022-08-05T01:43:51.073Z,7.07
2022-08-05T01:46:43.012Z,6.60
2022-08-05T01:49:23.181Z,6.83
2022-08-05T01:51:54.047Z,7.07
2022-08-05T01:54:25.544Z,6.30
2022-08-05T01:58:09.313Z,6.40
2022-08-05T01:59:47.039Z,7.50
2022-08-05T02:02:15.807Z,7.37
2022-08-05T02:04:46.279Z,7.70
2022-08-05T02:07:22.143Z,7.80
2022-08-05T02:09:50.897Z,6.73
2022-08-05T02:12:53.356Z,7.43
2022-08-05T02:15:31.199Z,7.20
2022-08-05T02:18:31.341Z,7.17
2022-08-05T02:21:06.457Z,7.70
2022-08-05T02:23:48.511Z,7.33
2022-08-05T02:26:22.041Z,7.40
2022-08-05T02:28:49.856Z,7.30
2022-08-05T02:31:26.801Z,7.97
2022-08-05T02:33:59.375Z,6.83
2022-08-05T02:36:31.157Z,7.10
2022-08-05T02:39:00.004Z,7.77
2022-08-05T02:41:42.914Z,7.50
2022-08-05T02:44:16.027Z,9.13
2022-08-05T02:46:58.702Z,8.67
2022-08-05T02:49:35.833Z,8.03
2022-08-05T02:52:04.834Z,7.70
2022-08-05T02:54:36.109Z,7.90
2022-08-05T02:57:10.304Z,6.70
2022-08-05T02:59:55.121Z,7.10
2022-08-05T03:02:27.425Z,7.93
2022-08-05T03:04:57.195Z,7.63
2022-08-05T03:08:01.089Z,7.97
2022-08-05T03:10:15.749Z,7.57
2022-08-05T03:12:51.905Z,8.30
2022-08-05T03:15:20.430Z,7.63
2022-08-05T03:17:46.970Z,7.83
2022-08-05T03:20:13.827Z,8.20
2022-08-05T03:22:44.271Z,7.57
2022-08-05T03:25:33.266Z,6.70
2022-08-05T03:28:08.253Z,7.83
2022-08-05T03:30:36.618Z,8.10
2022-08-05T03:33:05.800Z,7.80
2022-08-05T03:35:33.976Z,8.23
2022-08-05T03:38:07.262Z,8.50
2022-08-05T03:40:34.249Z,7.70
2022-08-05T03:43:58.814Z,7.73
2022-08-05T03:45:55.192Z,8.07
2022-08-05T03:48:27.439Z,8.47
2022-08-05T03:52:34.712Z,8.20
2022-08-05T03:55:50.442Z,7.70
2022-08-05T03:56:47.526Z,7.60
2022-08-05T03:59:29.210Z,7.27
2022-08-05T04:02:17.542Z,7.83
2022-08-05T04:05:04.193Z,6.97
2022-08-05T04:07:57.324Z,6.93
2022-08-05T04:10:32.038Z,6.90
2022-08-05T04:13:04.619Z,7.00
2022-08-05T04:15:32.836Z,6.23
2022-08-05T04:18:07.897Z,6.70
2022-08-05T04:20:37.062Z,6.13
2022-08-05T04:23:04.023Z,7.27
2022-08-05T04:25:57.460Z,6.47
2022-08-05T04:28:17.842Z,7.07
2022-08-05T04:30:45.358Z,6.40
2022-08-05T04:33:12.727Z,7.53
2022-08-05T04:36:10.879Z,7.07
2022-08-05T04:38:39.812Z,7.03
2022-08-05T04:41:09.377Z,7.07
2022-08-05T04:43:46.676Z,7.23
2022-08-05T04:46:27.789Z,7.23
2022-08-05T04:48:57.960Z,7.80
2022-08-05T04:51:25.469Z,7.17
2022-08-05T04:53:56.838Z,8.73
2022-08-05T04:56:34.628Z,8.23
2022-08-05T04:59:22.373Z,7.87
2022-08-05T05:02:07.455Z,7.47
2022-08-05T05:04:38.337Z,8.43
2022-08-05T05:07:10.545Z,7.53
2022-08-05T05:09:37.419Z,7.30
2022-08-05T05:12:05.181Z,6.87
2022-08-05T05:14:32.910Z,7.60
2022-08-05T05:17:03.292Z,6.27
2022-08-05T05:19:37.126Z,7.50
2022-08-05T05:22:24.193Z,7.47
2022-08-05T05:24:59.904Z,7.03
2022-08-05T05:27:45.421Z,7.10
2022-08-05T05:30:31.073Z,6.90
2022-08-05T05:33:09.436Z,6.67
2022-08-05T05:35:45.057Z,5.70
2022-08-05T05:38:13.354Z,7.03
2022-08-05T05:40:49.700Z,6.33
2022-08-05T05:43:57.268Z,6.23
2022-08-05T05:46:17.778Z,6.30
2022-08-05T05:48:48.396Z,7.00
2022-08-05T05:51:49.567Z,6.93
2022-08-05T05:54:17.098Z,6.77
2022-08-05T05:56:43.678Z,6.50
2022-08-05T05:59:10.394Z,6.43
2022-08-05T06:01:57.884Z,6.10
2022-08-05T06:04:24.991Z,7.23
2022-08-05T06:06:51.750Z,6.27
2022-08-05T06:09:24.730Z,7.30
2022-08-05T06:11:59.553Z,6.23
2022-08-05T06:14:29.644Z,7.00
2022-08-05T06:16:56.807Z,7.10
2022-08-05T06:19:33.876Z,7.67
2022-08-05T06:22:06.452Z,7.27
2022-08-05T06:24:34.746Z,7.30
2022-08-05T06:27:04.013Z,7.43
2022-08-05T06:29:49.021Z,7.67
2022-08-05T06:32:26.357Z,7.40
2022-08-05T06:34:58.226Z,7.67
2022-08-05T06:37:56.480Z,7.10
2022-08-05T06:40:18.467Z,7.00
2022-08-05T06:42:52.775Z,8.03
2022-08-05T06:45:44.594Z,7.77
2022-08-05T06:48:46.859Z,7.40
2022-08-05T06:50:57.044Z,7.50
2022-08-05T06:53:28.258Z,6.70
2022-08-05T06:55:58.237Z,7.70
2022-08-05T06:58:35.484Z,7.87
2022-08-05T07:01:06.025Z,7.57
2022-08-05T07:03:33.494Z,7.37
2022-08-05T07:06:06.045Z,7.63
2022-08-05T07:08:47.561Z,7.60
2022-08-05T07:11:15.884Z,7.93
2022-08-05T07:14:02.116Z,9.03
2022-08-05T07:17:59.526Z,7.40
2022-08-05T07:22:28.154Z,6.70
2022-08-05T07:24:58.356Z,6.37
2022-08-05T07:27:27.723Z,7.80
2022-08-05T07:30:28.172Z,7.07
2022-08-05T07:32:57.751Z,6.17
2022-08-05T07:36:02.709Z,7.20
2022-08-05T07:38:12.127Z,6.30
2022-08-05T07:40:39.175Z,6.73
2022-08-05T07:43:20.257Z,6.17
2022-08-05T07:45:56.724Z,6.93
2022-08-05T07:49:01.005Z,7.33
2022-08-05T07:51:23.369Z,6.50
2022-08-05T07:53:58.997Z,7.10
2022-08-05T07:56:59.930Z,6.33
2022-08-05T07:59:15.604Z,6.73
2022-08-05T08:01:52.047Z,6.07
2022-08-05T08:04:37.307Z,6.27
2022-08-05T08:07:07.412Z,6.80
2022-08-05T08:09:34.990Z,5.17
2022-08-05T08:12:07.764Z,6.07
2022-08-05T08:14:42.746Z,5.77
2022-08-05T08:17:15.955Z,5.50
2022-08-05T08:20:43.013Z,5.97
2022-08-05T08:22:32.241Z,6.50
2022-08-05T08:25:03.367Z,5.90
2022-08-05T08:27:40.445Z,5.80
2022-08-05T08:30:19.070Z,6.07
2022-08-05T08:32:53.874Z,6.33
2022-08-05T08:35:20.887Z,6.60
2022-08-05T08:37:53.639Z,5.50
2022-08-05T08:40:23.866Z,5.80
2022-08-05T08:42:53.415Z,5.63
2022-08-05T08:45:27.198Z,4.73
2022-08-05T08:48:11.767Z,4.53
2022-08-05T08:51:07.560Z,5.27
2022-08-05T08:53:35.341Z,5.13
2022-08-05T08:56:06.092Z,6.40
2022-08-05T08:58:43.475Z,5.50
2022-08-05T09:01:16.483Z,5.77
2022-08-05T09:03:47.468Z,5.20
2022-08-05T09:06:18.623Z,5.60
2022-08-05T09:08:47.865Z,5.27
2022-08-05T09:11:15.293Z,5.57
2022-08-05T09:14:09.089Z,5.67
2022-08-05T09:16:29.731Z,5.57
2022-08-05T09:18:56.423Z,5.10
2022-08-05T09:22:22.997Z,6.03
2022-08-05T09:24:15.635Z,5.97
2022-08-05T09:26:46.143Z,5.60
2022-08-05T09:29:16.299Z,6.20
2022-08-05T09:32:41.178Z,6.97
2022-08-05T09:34:55.951Z,6.13
2022-08-05T09:38:16.594Z,6.57
2022-08-05T09:40:32.579Z,6.20
2022-08-05T09:43:01.111Z,6.57
2022-08-05T09:46:07.853Z,5.80
2022-08-05T09:48:31.305Z,6.77
2022-08-05T09:51:01.159Z,6.80
2022-08-05T09:53:53.122Z,5.93
2022-08-05T09:56:25.976Z,7.00
2022-08-05T09:58:57.305Z,5.53
2022-08-05T10:01:31.841Z,5.60
2022-08-05T10:04:10.671Z,7.33
2022-08-05T10:06:54.622Z,5.90
2022-08-05T10:09:27.255Z,5.73
2022-08-05T10:12:31.403Z,5.67
2022-08-05T10:15:13.889Z,6.50
2022-08-05T10:17:47.426Z,5.30
2022-08-05T10:20:23.796Z,5.00
2022-08-05T10:22:52.343Z,5.50
2022-08-05T10:25:19.484Z,4.67
2022-08-05T10:28:13.774Z,4.47
2022-08-05T10:31:20.945Z,4.97
2022-08-05T10:33:25.572Z,4.37
2022-08-05T10:35:59.185Z,4.40
2022-08-05T10:38:28.537Z,4.97
2022-08-05T10:41:23.203Z,4.23
2022-08-05T10:44:01.633Z,6.17
2022-08-05T10:46:46.942Z,4.27
2022-08-05T10:49:18.654Z,4.23
2022-08-05T10:52:00.458Z,4.27
2022-08-05T10:55:02.911Z,3.90
2022-08-05T10:57:34.028Z,4.40
2022-08-05T11:00:20.407Z,4.80
2022-08-05T11:02:59.141Z,5.50
2022-08-05T11:06:03.786Z,6.60
2022-08-05T11:08:38.161Z,6.63
2022-08-05T11:11:44.403Z,7.30
2022-08-05T11:14:13.023Z,8.30
2022-08-05T11:16:56.134Z,8.60
2022-08-05T11:20:11.182Z,8.23
2022-08-05T11:22:50.066Z,7.40
2022-08-05T11:26:04.382Z,7.03
2022-08-05T11:28:18.906Z,6.70
2022-08-05T11:30:58.285Z,6.80
2022-08-05T11:33:48.375Z,6.73
2022-08-05T11:36:33.914Z,5.67
2022-08-05T11:39:01.596Z,4.20
2022-08-05T11:41:56.477Z,6.63
2022-08-05T11:44:40.139Z,3.80
2022-08-05T11:47:14.224Z,3.70
2022-08-05T11:49:50.974Z,4.50
2022-08-05T11:52:29.022Z,4.10
2022-08-05T11:54:58.094Z,3.63
2022-08-05T11:57:30.647Z,4.00
2022-08-05T12:00:27.570Z,5.47
2022-08-05T12:02:56.566Z,5.40
2022-08-05T12:05:36.164Z,5.40
2022-08-05T12:08:10.804Z,5.53
2022-08-05T12:10:45.147Z,4.23
2022-08-05T12:13:16.748Z,4.00
2022-08-05T12:15:45.425Z,3.50
2022-08-05T12:18:20.586Z,3.00
2022-08-05T12:20:50.775Z,3.23
2022-08-05T12:23:17.331Z,2.97
2022-08-05T12:25:56.851Z,2.50
2022-08-05T12:28:34.691Z,2.80
2022-08-05T12:31:03.919Z,2.73
2022-08-05T12:33:36.759Z,2.60
2022-08-05T12:36:08.259Z,1.97
2022-08-05T12:38:39.709Z,2.23
2022-08-05T12:41:13.083Z,2.43
2022-08-05T12:43:58.700Z,2.13
2022-08-05T12:46:32.734Z,2.57
2022-08-05T12:49:13.480Z,2.60
2022-08-05T12:52:12.755Z,2.30
2022-08-05T12:54:37.151Z,2.63
2022-08-05T12:57:09.182Z,2.70
2022-08-05T13:01:57.958Z,2.20
2022-08-05T13:02:40.832Z,2.10
2022-08-05T13:05:12.486Z,2.90
2022-08-05T13:08:00.590Z,2.43
2022-08-05T13:10:30.986Z,2.80
2022-08-05T13:12:58.436Z,3.07
2022-08-05T13:15:35.883Z,2.70
2022-08-05T13:18:19.607Z,2.80
2022-08-05T13:20:49.223Z,2.37
2022-08-05T13:23:18.025Z,3.10
2022-08-05T13:25:52.365Z,3.07
2022-08-05T13:28:27.626Z,2.67
2022-08-05T13:30:54.196Z,2.77
2022-08-05T13:34:22.766Z,3.27
2022-08-05T13:36:09.105Z,2.87
2022-08-05T13:38:42.369Z,2.87
2022-08-05T13:41:11.279Z,2.80
2022-08-05T13:43:44.246Z,2.60
2022-08-05T13:46:13.164Z,2.90
2022-08-05T13:48:57.244Z,2.30
2022-08-05T13:51:29.314Z,3.00
2022-08-05T13:54:03.407Z,3.30
2022-08-05T13:56:45.228Z,3.30
2022-08-05T13:59:21.402Z,3.43
2022-08-05T14:01:58.747Z,2.90
2022-08-05T14:04:51.473Z,3.60
2022-08-05T14:07:55.503Z,4.10
2022-08-05T14:10:13.422Z,3.83
2022-08-05T14:12:42.727Z,3.80
2022-08-05T14:16:06.275Z,3.60
2022-08-05T14:17:59.479Z,3.20
2022-08-05T14:20:27.654Z,3.83
2022-08-05T14:22:54.675Z,4.10
2022-08-05T14:25:22.765Z,3.47
2022-08-05T14:27:55.667Z,4.07
2022-08-05T14:30:22.641Z,3.67
2022-08-05T14:32:52.954Z,3.23
2022-08-05T14:35:20.755Z,3.07
2022-08-05T14:37:53.591Z,3.20
2022-08-05T14:40:24.563Z,2.20
2022-08-05T14:42:51.817Z,2.87
2022-08-05T14:45:18.838Z,2.17
2022-08-05T14:48:03.183Z,2.30
2022-08-05T14:50:33.468Z,2.40
2022-08-05T14:53:06.733Z,2.03
2022-08-05T14:55:39.008Z,1.93
2022-08-05T14:58:10.841Z,2.03
2022-08-05T15:00:57.899Z,1.90
2022-08-05T15:03:26.126Z,2.63
2022-08-05T15:06:07.591Z,2.73
2022-08-05T15:09:01.059Z,2.20
2022-08-05T15:11:52.831Z,2.43
2022-08-05T15:14:33.396Z,2.20
2022-08-05T15:16:59.621Z,1.80
2022-08-05T15:19:26.521Z,2.50
2022-08-05T15:21:53.274Z,2.30
2022-08-05T15:24:24.832Z,2.50
2022-08-05T15:26:51.373Z,2.20
2022-08-05T15:29:18.513Z,2.70
2022-08-05T15:31:49.750Z,2.70
2022-08-05T15:34:32.141Z,2.67
2022-08-05T15:37:03.489Z,2.40
2022-08-05T15:41:03.016Z,2.03
2022-08-05T15:42:50.301Z,2.73
2022-08-05T15:45:09.876Z,2.30
2022-08-05T15:47:37.146Z,2.53
2022-08-05T15:50:07.256Z,1.90
2022-08-05T15:52:53.774Z,2.40
2022-08-05T15:55:24.501Z,1.80
2022-08-05T15:57:52.130Z,1.90
2022-08-05T16:00:26.229Z,1.60
2022-08-05T16:03:00.461Z,1.10
2022-08-05T16:05:28.156Z,1.60
2022-08-05T16:07:55.179Z,1.10
2022-08-05T16:10:25.615Z,1.20
2022-08-05T16:12:53.772Z,0.80
2022-08-05T16:15:23.468Z,0.80
2022-08-05T16:17:57.725Z,1.20
2022-08-05T16:20:25.355Z,0.80
2022-08-05T16:22:51.914Z,0.70
2022-08-05T16:25:18.739Z,0.70
2022-08-05T16:28:00.744Z,0.80
2022-08-05T16:30:33.385Z,1.20
2022-08-05T16:33:00.951Z,0.77
2022-08-05T16:35:32.443Z,0.70
2022-08-05T16:38:14.919Z,0.70
2022-08-05T16:40:47.876Z,1.60
2022-08-05T16:43:24.037Z,1.70
2022-08-05T16:46:03.790Z,1.60
2022-08-05T16:48:36.232Z,2.27
2022-08-05T16:51:08.806Z,1.93
2022-08-05T16:54:05.063Z,2.97
2022-08-05T16:56:26.111Z,2.27
2022-08-05T16:58:52.734Z,2.77
2022-08-05T17:01:20.100Z,2.83
2022-08-05T17:03:47.359Z,2.60
2022-08-05T17:06:16.527Z,3.40
2022-08-05T17:08:53.881Z,2.60
2022-08-05T17:11:23.833Z,1.73
2022-08-05T17:14:00.237Z,1.30
2022-08-05T17:16:36.533Z,1.33
2022-08-05T17:19:07.768Z,1.00
2022-08-05T17:21:37.759Z,0.70
2022-08-05T17:24:28.038Z,0.90
2022-08-05T17:26:56.255Z,0.80
2022-08-05T17:29:33.682Z,1.00
2022-08-05T17:32:17.297Z,0.90
2022-08-05T17:34:47.531Z,1.10
2022-08-05T17:37:39.377Z,0.90
2022-08-05T17:40:05.979Z,0.80
2022-08-05T17:42:41.591Z,0.90
2022-08-05T17:45:20.287Z,0.63
2022-08-05T17:47:52.915Z,0.80
2022-08-05T17:50:27.605Z,0.83
2022-08-05T17:52:56.155Z,0.63
2022-08-05T17:55:27.392Z,1.20
2022-08-05T17:58:02.180Z,0.70
2022-08-05T18:00:29.355Z,0.67
2022-08-05T18:02:56.226Z,0.60
2022-08-05T18:05:23.820Z,0.70
2022-08-05T18:07:55.218Z,1.43
2022-08-05T18:10:23.515Z,0.80
2022-08-05T18:12:50.102Z,0.60
2022-08-05T18:15:16.693Z,0.60
2022-08-05T18:18:00.240Z,0.73
2022-08-05T18:20:32.115Z,0.70
2022-08-05T18:23:11.432Z,0.60
2022-08-05T18:25:44.830Z,0.70
2022-08-05T18:28:12.310Z,0.60
2022-08-05T18:30:50.925Z,0.77
2022-08-05T18:33:22.513Z,0.80
2022-08-05T18:36:03.629Z,0.70
2022-08-05T18:38:36.553Z,0.50
2022-08-05T18:41:54.958Z,0.60
2022-08-05T18:43:51.843Z,0.60
2022-08-05T18:46:20.194Z,0.60
2022-08-05T18:48:52.678Z,0.80
2022-08-05T18:52:04.358Z,0.50
2022-08-05T18:54:28.418Z,0.70
2022-08-05T18:57:01.727Z,1.10
2022-08-05T18:59:44.357Z,0.60
2022-08-05T19:02:28.183Z,0.60
2022-08-05T19:05:03.221Z,0.73
2022-08-05T19:07:45.557Z,0.60
2022-08-05T19:10:18.663Z,0.80
2022-08-05T19:12:53.259Z,0.70
2022-08-05T19:15:57.468Z,0.67
2022-08-05T19:18:09.365Z,0.60
2022-08-05T19:20:41.440Z,0.70
2022-08-05T19:24:03.843Z,0.60
2022-08-05T19:26:02.203Z,0.50
2022-08-05T19:28:33.614Z,0.70
2022-08-05T19:31:01.095Z,0.87
2022-08-05T19:33:35.923Z,0.60
2022-08-05T19:36:07.082Z,0.60
2022-08-05T19:38:35.562Z,0.70
2022-08-05T19:41:07.080Z,0.70
2022-08-05T19:44:06.580Z,0.60
2022-08-05T19:46:29.251Z,0.70
2022-08-05T19:49:00.845Z,0.63
2022-08-05T19:52:09.260Z,0.60
2022-08-05T19:54:25.381Z,0.63
2022-08-05T19:56:58.482Z,0.80
2022-08-05T20:00:00.784Z,0.70
2022-08-05T20:02:12.635Z,0.70
2022-08-05T20:04:42.879Z,0.60
2022-08-05T20:07:10.435Z,0.67
2022-08-05T20:09:54.361Z,0.73
2022-08-05T20:12:24.086Z,0.70
2022-08-05T20:14:52.866Z,0.70
2022-08-05T20:17:23.276Z,0.80
2022-08-05T20:19:56.723Z,0.80
2022-08-05T20:22:26.780Z,0.70
2022-08-05T20:24:55.289Z,0.70
2022-08-05T20:27:26.408Z,0.80
2022-08-05T20:29:58.236Z,0.70
2022-08-05T20:32:27.436Z,0.70
2022-08-05T20:34:54.646Z,0.60
2022-08-05T20:38:04.573Z,0.77
2022-08-05T20:40:08.899Z,0.70
2022-08-05T20:42:35.671Z,0.70
2022-08-05T20:45:03.392Z,1.17
2022-08-05T20:47:31.796Z,0.80
2022-08-05T20:49:59.529Z,0.87
2022-08-05T20:52:28.443Z,0.90
2022-08-05T20:55:15.925Z,0.70
2022-08-05T20:57:44.521Z,0.83
2022-08-05T21:00:40.502Z,0.70
2022-08-05T21:03:07.169Z,1.73
2022-08-05T21:05:48.392Z,0.60
2022-08-05T21:08:21.076Z,0.77
2022-08-05T21:10:53.625Z,0.90
2022-08-05T21:13:26.354Z,0.90
2022-08-05T21:16:07.329Z,0.80
2022-08-05T21:18:34.285Z,0.70
2022-08-05T21:21:02.586Z,0.87
2022-08-05T21:23:29.132Z,1.10
2022-08-05T21:26:04.200Z,0.63
2022-08-05T21:28:40.103Z,1.30
2022-08-05T21:31:14.291Z,0.70
2022-08-05T21:33:43.216Z,0.80
2022-08-05T21:36:14.154Z,0.80
2022-08-05T21:38:54.763Z,1.10
2022-08-05T21:41:21.733Z,0.90
2022-08-05T21:43:50.707Z,0.90
2022-08-05T21:46:28.033Z,0.77
2022-08-05T21:48:56.794Z,1.10
2022-08-05T21:52:21.434Z,0.80
2022-08-05T21:54:12.905Z,0.90
2022-08-05T21:56:44.451Z,1.00
2022-08-05T21:59:22.557Z,0.80
2022-08-05T22:01:54.386Z,0.93
2022-08-05T22:04:25.485Z,0.70
2022-08-05T22:06:52.832Z,1.10
2022-08-05T22:09:21.077Z,0.90
2022-08-05T22:11:48.950Z,1.50
2022-08-05T22:14:37.214Z,1.13
2022-08-05T22:17:06.667Z,1.00
2022-08-05T22:20:00.644Z,0.90
2022-08-05T22:22:27.686Z,0.80
2022-08-05T22:25:18.237Z,0.90
2022-08-05T22:28:05.061Z,0.80
2022-08-05T22:30:56.439Z,0.80
2022-08-05T22:33:57.694Z,1.03
2022-08-05T22:36:15.431Z,1.10
2022-08-05T22:38:47.927Z,1.07
2022-08-05T22:41:16.585Z,1.00
2022-08-05T22:44:03.210Z,1.03
2022-08-05T22:46:29.757Z,1.03
2022-08-05T22:48:56.567Z,1.10
2022-08-05T22:52:04.311Z,1.20
2022-08-05T22:54:09.850Z,1.20
2022-08-05T22:56:36.424Z,1.10
2022-08-05T22:59:45.803Z,1.00
2022-08-05T23:02:06.271Z,1.00
2022-08-05T23:04:34.722Z,1.03
2022-08-05T23:07:02.988Z,1.10
2022-08-05T23:09:58.256Z,1.00
2022-08-05T23:12:17.908Z,0.80
2022-08-05T23:14:44.630Z,1.10
2022-08-05T23:17:34.568Z,1.10
2022-08-05T23:20:16.290Z,1.40
2022-08-05T23:22:47.606Z,1.13
2022-08-05T23:25:17.067Z,0.90
2022-08-05T23:28:03.741Z,1.00
2022-08-05T23:30:40.515Z,1.50
2022-08-05T23:33:22.593Z,0.83
2022-08-05T23:35:57.515Z,1.27
2022-08-05T23:38:24.446Z,1.17
2022-08-05T23:40:52.618Z,1.10
2022-08-05T23:43:25.369Z,1.10
2022-08-05T23:46:20.395Z,0.80
2022-08-05T23:49:00.866Z,1.20
2022-08-05T23:51:53.496Z,1.40
2022-08-05T23:54:25.167Z,1.47
2022-08-05T23:57:03.849Z,1.03
